Flight Track Log - Related Links

Times and Time Zones

All times are in EDT time to prevent confusion due to time zone crossing. See the N76055 flight status page for this flight to view local times or setup timezone preferences in your user account.

Time Position Orientation Groundspeed Altitude Reporting Facility
EDT Latitude Longitude Course Direction KTS MPH feet Rate Location/Type
Sat 06:15:27 AM 50.8930 4.4330 263° West 181 208 1,700  Level FlightAware ADS-B
Sat 06:15:47 AM 50.8970 4.4040 282° West 190 219 2,500 2,160 Climbing FlightAware ADS-B
Sat 06:16:17 AM 50.9080 4.3640 294° West 203 234 3,500 1,733 Climbing FlightAware ADS-B
Sat 06:16:32 AM 50.9140 4.3390 291° West 224 258 3,800 1,500 Climbing FlightAware ADS-B
Sat 06:16:57 AM 50.9230 4.3060 293° West 235 270 4,500 2,182 Climbing FlightAware ADS-B
Sat 06:17:27 AM 50.9410 4.2550 299° West 253 291 5,800 2,533 Climbing FlightAware ADS-B
Sat 06:17:42 AM 50.9520 4.2320 307° West 262 302 6,400 2,571 Climbing FlightAware ADS-B
Sat 06:18:02 AM 50.9620 4.2070 302° West 259 298 7,300 3,000 Climbing FlightAware ADS-B
Sat 06:18:52 AM 50.9940 4.1210 301° West 262 302 9,900 2,600 Climbing FlightAware ADS-B
Sat 06:19:32 AM 51.0220 4.0480 301° West 288 331 11,200 1,500 Climbing FlightAware ADS-B
Sat 06:20:12 AM 51.0520 3.9720 302° West 334 384 11,900 1,425 Climbing FlightAware ADS-B
Sat 06:20:52 AM 51.0840 3.8880 302° West 355 409 13,100  Climbing FlightAware ADS-B
Sat 06:20:53 AM 51.0893 3.8778 302° West 384 442 11,900 2,667 Descending FlightAware UK
Sat 06:21:37 AM 51.1260 3.7810 302° West 368 423 15,100 2,966 Climbing FlightAware ADS-B
Sat 06:22:22 AM 51.1690 3.6700 302° West 394 453 16,300 1,765 Climbing FlightAware ADS-B
Sat 06:23:02 AM 51.2000 3.5870 301° West 395 455 17,600 2,118 Climbing FlightAware ADS-B
Sat 06:23:47 AM 51.2460 3.4540 299° West 408 470 19,300 1,040 Climbing FlightAware ADS-B
Sat 06:24:17 AM 51.2629 3.3633 299° West 454 522 18,900 2,100 Descending FlightAware UK
Sat 06:24:27 AM 51.2670 3.3360 299° West 413 475 20,700 3,480 Climbing FlightAware ADS-B
Sat 06:25:07 AM 51.2850 3.2200 284° West 421 484 21,800 107 Climbing FlightAware ADS-B
Sat 06:25:23 AM 51.2933 3.1674 284° West 466 536 20,800 1,733 Descending FlightAware UK
Sat 06:25:52 AM 51.3050 3.0820 284° West 429 494 23,100 3,043 Climbing FlightAware ADS-B
Sat 06:26:32 AM 51.3230 2.9550 283° West 435 501 24,300 1,650 Climbing FlightAware ADS-B
Sat 06:27:12 AM 51.3400 2.8380 283° West 438 504 25,300 667 Climbing FlightAware ADS-B
Sat 06:27:35 AM 51.3516 2.7557 283° West 480 552 25,000 2,667 Descending FlightAware UK
Sat 06:27:57 AM 51.3600 2.6960 283° West 424 488 27,300 3,677 Climbing FlightAware ADS-B
Sat 06:28:37 AM 51.3740 2.5740 280° West 414 476 28,800 968 Climbing FlightAware ADS-B
Sat 06:28:59 AM 51.3826 2.5019 280° West 476 548 28,300 -450 Descending FlightAware UK
Sat 06:29:17 AM 51.3890 2.4500 281° West 470 541 28,500 4,435 Climbing FlightAware UK
Sat 06:29:22 AM 51.3900 2.4440 281° West 393 452 30,000 -143 Climbing FlightAware ADS-B
Sat 06:29:59 AM 51.4031 2.3331 281° West 466 536 28,400  Descending FlightAware UK
Sat 06:30:02 AM 51.4050 2.3260 281° West 384 442 30,000 9,600 Climbing FlightAware ADS-B
Sat 06:30:09 AM 51.4080 2.2994 280° West 384 442 30,000 -3,692 Level FlightAware ADS-B
Sat 06:30:28 AM 51.4133 2.2503 280° West 468 539 28,400  Descending FlightAware UK
Sat 06:30:47 AM 51.4209 2.1941 280° West 387 445 30,000 167 Climbing FlightAware ADS-B
Sat 06:31:04 AM 51.4255 2.1488 280° West 470 541 28,500  Descending FlightAware UK
Sat 06:31:24 AM 51.4336 2.0899 280° West 391 450 30,000  Climbing FlightAware ADS-B
Sat 06:31:46 AM 51.4392 2.0301 280° West 474 545 28,500  Descending FlightAware UK
Sat 06:31:57 AM 51.4448 1.9961 280° West 394 453 30,000 2,195 Climbing FlightAware ADS-B
Sat 06:32:27 AM 51.4554 1.9083 281° West 395 455 30,000  Level FlightAware ADS-B
Sat 06:32:58 AM 51.4660 1.8219 281° West 396 456 30,000 -1,837 Level FlightAware ADS-B
Sat 06:33:16 AM 51.4701 1.7718 281° West 480 552 28,500  Descending FlightAware UK
Sat 06:33:30 AM 51.4772 1.7284 281° West 395 455 30,000 1,765 Climbing FlightAware ADS-B
Sat 06:34:07 AM 51.4899 1.6218 281° West 395 455 30,000 -1,552 Level FlightAware ADS-B
Sat 06:34:28 AM 51.4942 1.5660 281° West 478 550 28,500  Descending FlightAware UK
Sat 06:34:39 AM 51.5007 1.5301 281° West 395 455 30,000  Climbing FlightAware ADS-B
Sat 06:34:58 AM 51.5038 1.4800 281° West 478 550 28,500  Descending FlightAware UK
Sat 06:35:10 AM 51.5108 1.4424 281° West 394 453 30,000  Climbing FlightAware ADS-B
Sat 06:35:28 AM 51.5135 1.3939 281° West 478 550 28,500  Descending FlightAware UK
Sat 06:35:44 AM 51.5220 1.3444 281° West 393 452 30,000  Climbing FlightAware ADS-B
Sat 06:36:04 AM 51.5251 1.2908 281° West 478 550 28,500 -2,526 Descending FlightAware UK
Sat 06:36:22 AM 51.5308 1.2394 280° West 478 550 28,400 3,214 Descending FlightAware UK
Sat 06:36:32 AM 51.5350 1.2290 280° West 392 451 30,000 2,462 Climbing FlightAware ADS-B
Sat 06:37:01 AM 51.5472 1.1241 281° West 390 449 30,000 -2,182 Level FlightAware ADS-B
Sat 06:37:16 AM 51.5478 1.0865 281° West 478 550 28,400  Descending FlightAware UK
Sat 06:37:37 AM 51.5585 1.0235 281° West 388 447 30,000  Climbing FlightAware ADS-B
Sat 06:37:58 AM 51.5607 0.9682 281° West 476 548 28,400  Descending FlightAware UK
Sat 06:38:09 AM 51.5687 0.9324 281° West 387 445 30,000  Climbing FlightAware ADS-B
Sat 06:38:28 AM 51.5698 0.8838 281° West 474 545 28,400  Descending FlightAware UK
Sat 06:38:37 AM 51.5774 0.8531 281° West 386 444 30,000 6,000 Climbing FlightAware ADS-B
Sat 06:38:44 AM 51.5786 0.8344 276° West 388 447 30,000  Level FlightAware ADS-B
Sat 06:38:54 AM 51.5784 0.8035 269° West 392 451 30,000  Level FlightAware ADS-B
Sat 06:39:25 AM 51.5756 0.7154 267° West 390 449 30,000  Level FlightAware ADS-B
Sat 06:39:56 AM 51.5744 0.6255 269° West 389 448 30,000  Level FlightAware ADS-B
Sat 06:40:26 AM 51.5729 0.5387 268° West 388 447 30,000  Level FlightAware ADS-B
Sat 06:40:58 AM 51.5705 0.4462 268° West 389 448 30,000  Level FlightAware ADS-B
Sat 06:41:27 AM 51.5681 0.3638 267° West 389 448 30,000 -1,915 Level FlightAware ADS-B
Sat 06:41:45 AM 51.5599 0.3144 267° West 470 541 28,500  Descending FlightAware UK
Sat 06:41:57 AM 51.5654 0.2775 267° West 389 448 30,000  Climbing FlightAware ADS-B
Sat 06:42:15 AM 51.5568 0.2280 267° West 472 543 28,500  Descending FlightAware UK
Sat 06:42:28 AM 51.5623 0.1896 267° West 389 448 30,000 2,045 Climbing FlightAware ADS-B
Sat 06:42:59 AM 51.5590 0.1002 267° West 389 448 30,000 -1,698 Level FlightAware ADS-B
Sat 06:43:21 AM 51.5492 0.0388 267° West 472 543 28,500  Descending FlightAware UK
Sat 06:43:31 AM 51.5555 0.0079 267° West 389 448 30,000  Climbing FlightAware ADS-B
Sat 06:43:51 AM 51.5456 -0.0475 267° West 470 541 28,500  Descending FlightAware UK
Sat 06:44:02 AM 51.5521 -0.0805 267° West 389 448 30,000 2,432 Climbing FlightAware ADS-B
Sat 06:44:28 AM 51.5494 -0.1547 267° West 388 447 30,000  Level FlightAware ADS-B
Sat 06:44:37 AM 51.5490 -0.1827 269° West 387 445 30,000  Level FlightAware ADS-B
Sat 06:44:54 AM 51.5499 -0.2308 272° West 385 443 30,000  Level FlightAware ADS-B
Sat 06:45:23 AM 51.5548 -0.3139 275° West 384 442 30,000  Level FlightAware ADS-B
Sat 06:45:54 AM 51.5630 -0.4007 279° West 385 443 30,000  Level FlightAware ADS-B
Sat 06:46:25 AM 51.5708 -0.4865 278° West 384 442 30,000  Level FlightAware ADS-B
Sat 06:46:55 AM 51.5788 -0.5722 279° West 386 444 30,000  Level FlightAware ADS-B
Sat 06:47:25 AM 51.5872 -0.6577 279° West 387 445 30,000  Level FlightAware ADS-B
Sat 06:47:56 AM 51.5955 -0.7435 279° West 387 445 30,000 -1,959 Level FlightAware ADS-B
Sat 06:48:14 AM 51.5910 -0.7962 279° West 474 545 28,400  Descending FlightAware UK
Sat 06:48:27 AM 51.6039 -0.8314 279° West 387 445 30,000 2,233 Climbing FlightAware ADS-B
Sat 06:48:57 AM 51.6121 -0.9170 279° West 388 447 30,000 -1,915 Level FlightAware ADS-B
Sat 06:49:14 AM 51.6064 -0.9667 279° West 470 541 28,500  Descending FlightAware UK
Sat 06:49:27 AM 51.6202 -1.0041 279° West 388 447 30,000 2,045 Climbing FlightAware ADS-B
Sat 06:49:58 AM 51.6282 -1.0922 278° West 389 448 30,000 -1,915 Level FlightAware ADS-B
Sat 06:50:14 AM 51.6219 -1.1377 278° West 474 545 28,500  Descending FlightAware UK
Sat 06:50:28 AM 51.6361 -1.1775 278° West 390 449 30,000  Climbing FlightAware ADS-B
Sat 06:50:44 AM 51.6294 -1.2233 278° West 476 548 28,500  Descending FlightAware UK
Sat 06:50:59 AM 51.6437 -1.2653 278° West 391 450 30,000  Climbing FlightAware ADS-B
Sat 06:51:20 AM 51.6378 -1.3272 278° West 474 545 28,500  Descending FlightAware UK
Sat 06:51:29 AM 51.6507 -1.3522 278° West 392 451 30,000 2,250 Climbing FlightAware ADS-B
Sat 06:52:00 AM 51.6581 -1.4419 278° West 392 451 30,000  Level FlightAware ADS-B
Sat 06:52:23 AM 51.6634 -1.5085 277° West 393 452 30,000  Level FlightAware ADS-B
Sat 06:52:36 AM 51.6679 -1.5445 281° West 392 451 30,000  Level FlightAware ADS-B
Sat 06:52:54 AM 51.6779 -1.5969 287° West 393 452 30,000  Level FlightAware ADS-B
Sat 06:53:11 AM 51.6890 -1.6410 292° West 395 455 30,000  Level FlightAware ADS-B
Sat 06:53:24 AM 51.6996 -1.6754 296° West 396 456 30,000 -2,727 Level FlightAware ADS-B
Sat 06:53:44 AM 51.7072 -1.7276 296° West 476 548 28,500  Descending FlightAware UK
Sat 06:53:56 AM 51.7304 -1.7560 296° West 397 457 30,000 2,143 Climbing FlightAware ADS-B
Sat 06:54:26 AM 51.7595 -1.8326 302° West 397 457 30,000  Level FlightAware ADS-B
Sat 06:54:57 AM 51.7895 -1.9098 302° West 398 458 30,000 -1,875 Level FlightAware ADS-B
Sat 06:55:14 AM 51.7936 -1.9539 302° West 474 545 28,500  Descending FlightAware UK
Sat 06:55:27 AM 51.8194 -1.9862 302° West 399 459 30,000  Climbing FlightAware ADS-B
Sat 06:55:44 AM 51.8231 -2.0294 302° West 472 543 28,500  Descending FlightAware UK
Sat 06:55:59 AM 51.8502 -2.0654 302° West 400 460 30,000 1,915 Climbing FlightAware ADS-B
Sat 06:56:31 AM 51.8817 -2.1463 302° West 401 461 30,000 -1,800 Level FlightAware ADS-B
Sat 06:56:49 AM 51.8878 -2.1963 302° West 472 543 28,500  Descending FlightAware UK
Sat 06:57:02 AM 51.9119 -2.2235 302° West 402 463 30,000  Climbing FlightAware ADS-B
Sat 06:57:19 AM 51.9173 -2.2729 302° West 474 545 28,500  Descending FlightAware UK
Sat 06:57:32 AM 51.9422 -2.3019 302° West 402 463 30,000  Climbing FlightAware ADS-B
Sat 06:57:55 AM 51.9525 -2.3651 302° West 474 545 28,500  Descending FlightAware UK
Sat 06:58:03 AM 51.9723 -2.3812 302° West 403 464 30,000  Climbing FlightAware ADS-B
Sat 06:58:19 AM 51.9755 -2.4266 302° West 474 545 28,500  Descending FlightAware UK
Sat 06:58:35 AM 52.0032 -2.4636 302° West 404 465 30,000  Climbing FlightAware ADS-B
Sat 06:58:55 AM 52.0105 -2.5196 302° West 474 545 28,500  Descending FlightAware UK
Sat 06:59:07 AM 52.0340 -2.5456 302° West 403 464 30,000  Climbing FlightAware ADS-B
Sat 06:59:25 AM 52.0394 -2.5975 302° West 474 545 28,500  Descending FlightAware UK
Sat 06:59:37 AM 52.0610 -2.6180 302° West 403 464 30,000  Climbing FlightAware ADS-B
Sat 06:59:55 AM 52.0683 -2.6755 302° West 472 543 28,500 -2,500 Descending FlightAware UK
Sat 07:00:13 AM 52.0857 -2.7224 301° West 472 543 28,500 3,333 Level FlightAware UK
Sat 07:00:22 AM 52.1020 -2.7270 301° West 404 465 30,000  Climbing FlightAware ADS-B
Sat 07:00:49 AM 52.1202 -2.8163 301° West 476 548 28,500  Descending FlightAware UK
Sat 07:01:02 AM 52.1400 -2.8320 301° West 401 461 30,000 1,957 Climbing FlightAware ADS-B
Sat 07:01:35 AM 52.1762 -2.9309 301° West 405 466 30,000 -1,698 Level FlightAware ADS-B
Sat 07:01:55 AM 52.1831 -2.9893 301° West 476 548 28,500  Descending FlightAware UK
Sat 07:02:06 AM 52.2051 -3.0107 301° West 404 465 30,000 2,195 Climbing FlightAware ADS-B
Sat 07:02:36 AM 52.2339 -3.0901 301° West 404 465 30,000  Level FlightAware ADS-B
Sat 07:03:12 AM 52.2630 -3.1710 300° West 399 459 30,000  Level FlightAware ADS-B
Sat 07:03:15 AM 52.2712 -3.1934 301° West 404 465 30,000 -4,737 Level FlightAware ADS-B
Sat 07:03:31 AM 52.2738 -3.2410 301° West 476 548 28,500  Descending FlightAware UK
Sat 07:03:49 AM 52.3031 -3.2824 301° West 403 464 30,000  Climbing FlightAware ADS-B
Sat 07:04:13 AM 52.3135 -3.3515 301° West 476 548 28,500  Descending FlightAware UK
Sat 07:04:21 AM 52.3324 -3.3638 301° West 403 464 30,000  Climbing FlightAware ADS-B
Sat 07:04:43 AM 52.3420 -3.4303 301° West 476 548 28,500  Descending FlightAware UK
Sat 07:04:52 AM 52.3628 -3.4475 301° West 404 465 30,000 2,143 Climbing FlightAware ADS-B
Sat 07:05:25 AM 52.3938 -3.5335 301° West 404 465 30,000  Level FlightAware ADS-B
Sat 07:06:00 AM 52.4266 -3.6239 301° West 404 465 30,000 -1,500 Level FlightAware ADS-B
Sat 07:06:25 AM 52.4391 -3.6980 301° West 474 545 28,500  Descending FlightAware UK
Sat 07:06:31 AM 52.4559 -3.7045 301° West 404 465 30,000 2,500 Climbing FlightAware ADS-B
Sat 07:07:01 AM 52.4856 -3.7854 301° West 404 465 30,000 -1,500 Level FlightAware ADS-B
Sat 07:07:31 AM 52.5027 -3.8713 301° West 474 545 28,500 -1,667 Descending FlightAware UK
Sat 07:07:55 AM 52.5261 -3.9343 301° West 476 548 28,500 2,903 Level FlightAware UK
Sat 07:08:02 AM 52.5400 -3.9350 301° West 404 465 30,000  Climbing FlightAware ADS-B
Sat 07:08:18 AM 52.5489 -3.9972 301° West 476 548 28,500 -2,571 Descending FlightAware UK
Sat 07:08:37 AM 52.5661 -4.0456 300° West 476 548 28,500 3,750 Level FlightAware UK
Sat 07:08:42 AM 52.5790 -4.0440 300° West 403 464 30,000  Climbing FlightAware ADS-B
Sat 07:09:12 AM 52.5995 -4.1410 300° West 474 545 28,500  Descending FlightAware UK
Sat 07:09:27 AM 52.6220 -4.1660 300° West 403 464 30,000  Climbing FlightAware ADS-B
Sat 07:09:54 AM 52.6386 -4.2530 300° West 476 548 28,500  Descending FlightAware UK
Sat 07:10:07 AM 52.6580 -4.2720 300° West 403 464 30,000  Climbing FlightAware ADS-B
Sat 07:10:24 AM 52.6665 -4.3328 300° West 474 545 28,500 -2,571 Descending FlightAware UK
Sat 07:10:42 AM 52.6832 -4.3807 300° West 474 545 28,500 3,214 Level FlightAware UK
Sat 07:10:52 AM 52.6980 -4.3870 300° West 402 463 30,000  Climbing FlightAware ADS-B
Sat 07:11:12 AM 52.7110 -4.4605 300° West 472 543 28,500 -2,368 Descending FlightAware UK
Sat 07:11:30 AM 52.7276 -4.5085 300° West 474 545 28,500 4,500 Level FlightAware UK
Sat 07:11:32 AM 52.7350 -4.4940 300° West 402 463 30,000  Climbing FlightAware ADS-B
Sat 07:11:48 AM 52.7443 -4.5565 300° West 474 545 28,500 -2,647 Descending FlightAware UK
Sat 07:12:06 AM 52.7609 -4.6045 300° West 472 543 28,500 3,103 Level FlightAware UK
Sat 07:12:17 AM 52.7760 -4.6110 300° West 403 464 30,000  Climbing FlightAware ADS-B
Sat 07:12:36 AM 52.7886 -4.6846 300° West 472 543 28,500 -2,432 Descending FlightAware UK
Sat 07:12:54 AM 52.8053 -4.7328 300° West 474 545 28,500 4,286 Level FlightAware UK
Sat 07:12:57 AM 52.8120 -4.7190 300° West 402 463 30,000  Climbing FlightAware ADS-B
Sat 07:13:12 AM 52.8218 -4.7811 300° West 474 545 28,500 -2,727 Descending FlightAware UK
Sat 07:13:30 AM 52.8384 -4.8294 300° West 472 543 28,500 4,500 Level FlightAware UK
Sat 07:13:32 AM 52.8440 -4.8110 300° West 403 464 30,000  Climbing FlightAware ADS-B
Sat 07:13:48 AM 52.8548 -4.8772 300° West 474 545 28,500 -2,647 Descending FlightAware UK
Sat 07:14:06 AM 52.8714 -4.9256 300° West 474 545 28,500 2,647 Level FlightAware UK
Sat 07:14:22 AM 52.8900 -4.9460 300° West 403 464 30,000  Climbing FlightAware ADS-B
Sat 07:14:42 AM 52.9044 -5.0226 300° West 472 543 28,500 -2,368 Descending FlightAware UK
Sat 07:15:00 AM 52.9209 -5.0712 299° West 472 543 28,500 4,500 Level FlightAware UK
Sat 07:15:02 AM 52.9250 -5.0520 299° West 404 465 30,000  Climbing FlightAware ADS-B
Sat 07:15:18 AM 52.9373 -5.1198 299° West 472 543 28,500 -2,647 Descending FlightAware UK
Sat 07:15:36 AM 52.9536 -5.1686 299° West 472 543 28,500 3,103 Level FlightAware UK
Sat 07:15:47 AM 52.9660 -5.1750 299° West 405 466 30,000  Climbing FlightAware ADS-B
Sat 07:16:06 AM 52.9808 -5.2502 299° West 474 545 28,500 -2,432 Descending FlightAware UK
Sat 07:16:24 AM 52.9972 -5.2992 299° West 474 545 28,500 4,286 Level FlightAware UK
Sat 07:16:27 AM 53.0040 -5.2880 299° West 406 467 30,000 -250 Climbing FlightAware ADS-B
Sat 07:16:48 AM 53.0192 -5.3647 299° West 476 548 28,400  Descending FlightAware UK
Sat 07:17:12 AM 53.0430 -5.4070 299° West 406 467 30,000  Climbing FlightAware ADS-B
Sat 07:17:30 AM 53.0573 -5.4798 299° West 474 545 28,400  Descending FlightAware UK
Sat 07:17:52 AM 53.0790 -5.5180 299° West 406 467 30,000 1,548 Climbing FlightAware ADS-B
Sat 07:18:32 AM 53.1140 -5.6240 299° West 405 466 30,000  Level FlightAware ADS-B
Sat 07:19:12 AM 53.1510 -5.7380 298° West 405 466 30,000 -1,552 Level FlightAware ADS-B
Sat 07:19:30 AM 53.1662 -5.8081 298° West 472 543 28,500 -2,500 Descending FlightAware UK
Sat 07:19:48 AM 53.1825 -5.8573 299° West 472 543 28,500 3,333 Level FlightAware UK
Sat 07:19:57 AM 53.1910 -5.8620 299° West 406 467 30,000  Climbing FlightAware ADS-B
Sat 07:20:12 AM 53.2041 -5.9232 299° West 474 545 28,500 -2,727 Descending FlightAware UK
Sat 07:20:30 AM 53.2203 -5.9727 299° West 476 548 28,500 3,600 Level FlightAware UK
Sat 07:20:37 AM 53.2280 -5.9760 299° West 407 468 30,000  Climbing FlightAware ADS-B
Sat 07:20:54 AM 53.2420 -6.0388 299° West 472 543 28,500 -2,571 Descending FlightAware UK
Sat 07:21:12 AM 53.2580 -6.0879 299° West 472 543 28,500 3,214 Level FlightAware UK
Sat 07:21:22 AM 53.2690 -6.1010 299° West 408 470 30,000  Climbing FlightAware ADS-B
Sat 07:21:42 AM 53.2850 -6.1710 299° West 474 545 28,500 -2,368 Descending FlightAware UK
Sat 07:22:00 AM 53.3012 -6.2209 299° West 474 545 28,500 4,500 Level FlightAware UK
Sat 07:22:02 AM 53.3040 -6.2120 299° West 408 470 30,000  Climbing FlightAware ADS-B
Sat 07:22:18 AM 53.3174 -6.2710 299° West 476 548 28,500 -2,647 Descending FlightAware UK
Sat 07:22:36 AM 53.3336 -6.3212 298° West 476 548 28,500 3,103 Level FlightAware UK
Sat 07:22:47 AM 53.3450 -6.3380 298° West 409 471 30,000  Climbing FlightAware ADS-B
Sat 07:23:06 AM 53.3607 -6.4048 298° West 476 548 28,500 -2,432 Descending FlightAware UK
Sat 07:23:24 AM 53.3768 -6.4552 298° West 474 545 28,500 4,286 Level FlightAware UK
Sat 07:23:27 AM 53.3800 -6.4480 298° West 409 471 30,000  Climbing FlightAware ADS-B
Sat 07:23:42 AM 53.3930 -6.5055 298° West 474 545 28,500 -2,727 Descending FlightAware UK
Sat 07:24:00 AM 53.4091 -6.5559 298° West 474 545 28,500 3,600 Level FlightAware UK
Sat 07:24:07 AM 53.4150 -6.5600 298° West 410 472 30,000  Climbing FlightAware ADS-B
Sat 07:24:24 AM 53.4305 -6.6231 298° West 472 543 28,500 -2,571 Descending FlightAware UK
Sat 07:24:42 AM 53.4466 -6.6736 298° West 472 543 28,500 3,214 Level FlightAware UK
Sat 07:24:52 AM 53.4530 -6.6820 298° West 410 472 30,000  Climbing FlightAware ADS-B
Sat 07:25:12 AM 53.4733 -6.7576 298° West 474 545 28,500 -2,368 Descending FlightAware UK
Sat 07:25:30 AM 53.4893 -6.8082 298° West 474 545 28,500 4,500 Level FlightAware UK
Sat 07:25:32 AM 53.4890 -6.7970 298° West 411 473 30,000  Climbing FlightAware ADS-B
Sat 07:25:48 AM 53.5054 -6.8589 298° West 474 545 28,500 -2,647 Descending FlightAware UK
Sat 07:26:06 AM 53.5215 -6.9097 298° West 474 545 28,500 3,103 Level FlightAware UK
Sat 07:26:17 AM 53.5300 -6.9270 298° West 412 474 30,000  Climbing FlightAware ADS-B
Sat 07:26:36 AM 53.5482 -6.9947 298° West 474 545 28,500 -2,432 Descending FlightAware UK
Sat 07:26:54 AM 53.5641 -7.0458 298° West 474 545 28,500 4,286 Level FlightAware UK
Sat 07:26:57 AM 53.5640 -7.0380 298° West 413 475 30,000  Climbing FlightAware ADS-B
Sat 07:27:12 AM 53.5802 -7.0971 298° West 474 545 28,500 -2,727 Descending FlightAware UK
Sat 07:27:30 AM 53.5962 -7.1484 298° West 474 545 28,500 3,000 Level FlightAware UK
Sat 07:27:42 AM 53.6040 -7.1670 298° West 414 476 30,000  Climbing FlightAware ADS-B
Sat 07:28:00 AM 53.6228 -7.2338 298° West 476 548 28,500 -2,500 Descending FlightAware UK
Sat 07:28:18 AM 53.6388 -7.2851 298° West 476 548 28,500 4,091 Level FlightAware UK
Sat 07:28:22 AM 53.6380 -7.2790 298° West 414 476 30,000  Climbing FlightAware ADS-B
Sat 07:28:42 AM 53.6599 -7.3531 298° West 474 545 28,500 -2,368 Descending FlightAware UK
Sat 07:29:00 AM 53.6758 -7.4046 298° West 474 545 28,500 4,500 Level FlightAware UK
Sat 07:29:02 AM 53.6730 -7.3940 298° West 414 476 30,000  Climbing FlightAware ADS-B
Sat 07:29:18 AM 53.6917 -7.4562 298° West 474 545 28,500 -2,647 Descending FlightAware UK
Sat 07:29:36 AM 53.7075 -7.5078 297° West 476 548 28,500 3,103 Level FlightAware UK
Sat 07:29:47 AM 53.7140 -7.5280 297° West 414 476 30,000  Climbing FlightAware ADS-B
Sat 07:30:06 AM 53.7339 -7.5939 297° West 476 548 28,500 -2,432 Descending FlightAware UK
Sat 07:30:24 AM 53.7497 -7.6454 297° West 474 545 28,500 4,286 Level FlightAware UK
Sat 07:30:27 AM 53.7470 -7.6390 297° West 414 476 30,000  Climbing FlightAware ADS-B
Sat 07:30:42 AM 53.7655 -7.6972 297° West 476 548 28,500 -2,727 Descending FlightAware UK
Sat 07:31:00 AM 53.7812 -7.7488 297° West 476 548 28,500 3,600 Level FlightAware UK
Sat 07:31:07 AM 53.7810 -7.7520 297° West 415 478 30,000  Climbing FlightAware ADS-B
Sat 07:31:24 AM 53.8022 -7.8178 297° West 474 545 28,500 -2,571 Descending FlightAware UK
Sat 07:31:42 AM 53.8180 -7.8697 297° West 476 548 28,500 3,214 Level FlightAware UK
Sat 07:31:52 AM 53.8210 -7.8840 297° West 416 479 30,000  Climbing FlightAware ADS-B
Sat 07:32:12 AM 53.8442 -7.9564 297° West 476 548 28,500 -2,368 Descending FlightAware UK
Sat 07:32:30 AM 53.8599 -8.0087 297° West 476 548 28,500 4,500 Level FlightAware UK
Sat 07:32:32 AM 53.8540 -7.9970 297° West 417 480 30,000  Climbing FlightAware ADS-B
Sat 07:32:48 AM 53.8756 -8.0610 297° West 476 548 28,500 -2,250 Descending FlightAware UK
Sat 07:33:12 AM 53.8965 -8.1307 297° West 476 548 28,500 3,103 Level FlightAware UK
Sat 07:33:17 AM 53.8950 -8.1340 297° West 415 478 30,000  Climbing FlightAware ADS-B
Sat 07:33:36 AM 53.9174 -8.2004 297° West 472 543 28,500  Descending FlightAware UK
Sat 07:33:52 AM 53.9260 -8.2380 297° West 415 478 30,000  Climbing FlightAware ADS-B
Sat 07:33:54 AM 53.9330 -8.2527 297° West 472 543 28,500 -4,500 Descending FlightAware UK
Sat 07:34:12 AM 53.9486 -8.3050 297° West 472 543 28,500  Level FlightAware UK
Sat 07:34:30 AM 53.9641 -8.3572 297° West 470 541 28,500  Level FlightAware UK
Sat 07:34:48 AM 53.9796 -8.4094 297° West 470 541 28,500 2,813 Level FlightAware UK
Sat 07:35:02 AM 53.9800 -8.4250 297° West 413 475 30,000  Climbing FlightAware ADS-B
Sat 07:35:06 AM 53.9951 -8.4618 297° West 470 541 28,500 -5,625 Descending FlightAware UK
Sat 07:35:18 AM 54.0054 -8.4968 297° West 470 541 28,500  Level FlightAware UK
Sat 07:35:36 AM 54.0207 -8.5488 297° West 468 539 28,500 2,647 Level FlightAware UK
Sat 07:35:52 AM 54.0270 -8.5860 297° West 414 476 30,000  Climbing FlightAware ADS-B
Sat 07:36:12 AM 54.0515 -8.6541 297° West 470 541 28,500 -2,368 Descending FlightAware UK
Sat 07:36:30 AM 54.0670 -8.7069 297° West 472 543 28,500 4,500 Level FlightAware UK
Sat 07:36:32 AM 54.0590 -8.6950 297° West 416 479 30,000  Climbing FlightAware ADS-B
Sat 07:36:48 AM 54.0825 -8.7600 297° West 472 543 28,500 -2,647 Descending FlightAware UK
Sat 07:37:06 AM 54.0979 -8.8131 296° West 472 543 28,500 3,750 Level FlightAware UK
Sat 07:37:12 AM 54.0930 -8.8130 296° West 417 480 30,000  Climbing FlightAware ADS-B
Sat 07:37:30 AM 54.1187 -8.8841 296° West 474 545 28,500 -2,500 Descending FlightAware UK
Sat 07:37:48 AM 54.1342 -8.9376 296° West 476 548 28,500 3,333 Level FlightAware UK
Sat 07:37:57 AM 54.1300 -8.9430 296° West 418 481 30,000  Climbing FlightAware ADS-B
Sat 07:38:12 AM 54.1548 -9.0089 296° West 474 545 28,500  Descending FlightAware UK
Sat 07:38:37 AM 54.1650 -9.0650 296° West 419 482 30,000 1,286 Climbing FlightAware ADS-B
Sat 07:39:22 AM 54.2040 -9.2010 296° West 419 482 30,000  Level FlightAware ADS-B
Sat 07:40:02 AM 54.2390 -9.3220 296° West 419 482 30,000  Level FlightAware ADS-B
Sat 07:40:42 AM 54.2720 -9.4410 295° West 420 483 30,000  Level FlightAware ADS-B
Sat 07:41:27 AM 54.3110 -9.5770 296° West 421 484 30,000  Level FlightAware ADS-B
Sat 07:42:07 AM 54.3440 -9.6950 296° West 422 486 30,000  Level FlightAware ADS-B
Sat 07:42:52 AM 54.3820 -9.8340 295° West 426 490 30,000  Level FlightAware ADS-B
Sat 07:43:37 AM 54.4210 -9.9740 296° West 426 490 30,000  Level FlightAware ADS-B
Sat 07:44:37 AM 54.4730 -10.1500 297° West 431 496 30,000  Level FlightAware ADS-B
Sat 07:45:22 AM 54.5180 -10.2830 300° West 428 493 30,000  Level FlightAware ADS-B
Sat 07:46:07 AM 54.5650 -10.4200 301° West 429 494 30,000  Level FlightAware ADS-B
Sat 07:46:47 AM 54.6070 -10.5400 301° West 431 496 30,000  Level FlightAware ADS-B
Sat 07:47:27 AM 54.6480 -10.6610 300° West 432 497 30,000  Level FlightAware ADS-B
Sat 07:48:12 AM 54.6930 -10.7940 300° West 432 497 30,000  Level FlightAware ADS-B
Sat 07:48:52 AM 54.7340 -10.9130 301° West 433 498 30,000  Level FlightAware ADS-B
Sat 07:49:37 AM 54.7800 -11.0500 300° West 435 501 30,000  Level FlightAware ADS-B
Sat 07:50:17 AM 54.8200 -11.1710 300° West 435 501 30,000  Level FlightAware ADS-B
Sat 07:50:57 AM 54.8610 -11.2920 301° West 436 502 30,000  Level FlightAware ADS-B
Sat 07:51:42 AM 54.9070 -11.4320 300° West 438 504 30,000  Level FlightAware ADS-B
Sat 07:52:22 AM 54.9470 -11.5520 300° West 439 505 30,000  Level FlightAware ADS-B
Sat 07:53:07 AM 54.9940 -11.6930 300° West 440 506 30,000  Level FlightAware ADS-B
Sat 07:53:47 AM 55.0340 -11.8160 300° West 441 507 30,000  Level FlightAware ADS-B
Sat 07:54:27 AM 55.0750 -11.9420 300° West 442 509 30,000  Level FlightAware ADS-B
Sat 07:55:12 AM 55.1210 -12.0830 300° West 443 510 30,000  Level FlightAware ADS-B
Sat 07:55:47 AM 55.1550 -12.1880 300° West 443 510 30,000  Level FlightAware ADS-B
Sat 07:56:32 AM 55.2010 -12.3310 299° West 445 512 30,000  Level FlightAware ADS-B
Sat 07:57:17 AM 55.2460 -12.4710 299° West 446 513 30,000  Level FlightAware ADS-B
Sat 07:57:57 AM 55.2870 -12.6000 299° West 448 516 30,000  Level FlightAware ADS-B
Sat 07:58:42 AM 55.3330 -12.7440 299° West 449 517 30,000  Level FlightAware ADS-B
Sat 07:59:17 AM 55.3660 -12.8510 299° West 450 518 30,000  Level FlightAware ADS-B
Sat 08:00:02 AM 55.4070 -12.9850 298° West 450 518 30,000  Level FlightAware ADS-B
Sat 08:00:42 AM 55.4400 -13.0960 298° West 450 518 30,000  Level FlightAware ADS-B
Sat 08:01:22 AM 55.4730 -13.2060 298° West 450 518 30,000  Level FlightAware ADS-B
Sat 08:02:12 AM 55.5150 -13.3440 298° West 450 518 30,000  Level FlightAware ADS-B
Sat 08:02:52 AM 55.5480 -13.4540 298° West 450 518 30,000  Level FlightAware ADS-B
Sat 08:03:32 AM 55.5810 -13.5650 298° West 450 518 30,000  Level FlightAware ADS-B
Sat 08:04:12 AM 55.6150 -13.6750 299° West 450 518 30,000  Level FlightAware ADS-B
Sat 08:04:52 AM 55.6480 -13.7860 298° West 450 518 30,000  Level FlightAware ADS-B
Sat 08:05:42 AM 55.6890 -13.9250 298° West 450 518 30,000  Level FlightAware ADS-B
Sat 08:06:22 AM 55.7230 -14.0360 299° West 450 518 30,000  Level FlightAware ADS-B
Sat 08:07:02 AM 55.7560 -14.1470 298° West 450 518 30,000  Level FlightAware ADS-B
Sat 08:07:42 AM 55.7890 -14.2580 298° West 450 518 30,000  Level FlightAware ADS-B
Sat 08:08:22 AM 55.8220 -14.3690 298° West 450 518 30,000  Level FlightAware ADS-B
Sat 08:09:12 AM 55.8640 -14.5080 298° West 450 518 30,000 82 Level FlightAware ADS-B
Sat 08:11:00 AM 55.8810 -14.8683 275° West  Level Estimated
Sat 08:12:00 AM 55.9289 -15.0673 293° West  Level FlightAware Approximate
Sat 08:13:00 AM 55.9765 -15.2668 293° West  Level FlightAware Approximate
Sat 08:14:00 AM 56.0238 -15.4668 293° West  Level FlightAware Approximate
Sat 08:15:00 AM 56.0707 -15.6673 293° West  Level FlightAware Approximate
Sat 08:16:00 AM 56.1173 -15.8682 293° West  Level FlightAware Approximate
Sat 08:17:00 AM 56.1636 -16.0697 292° West  Level FlightAware Approximate
Sat 08:18:00 AM 56.2095 -16.2716 292° West  Level FlightAware Approximate
Sat 08:19:00 AM 56.2552 -16.4741 292° West  Level FlightAware Approximate
Sat 08:20:00 AM 56.3008 -16.6767 292° West  Level FlightAware Approximate
Sat 08:21:00 AM 56.3468 -16.8794 292° West  Level FlightAware Approximate
Sat 08:22:00 AM 56.3924 -17.0825 292° West  Level FlightAware Approximate
Sat 08:23:00 AM 56.4377 -17.2862 292° West  Level FlightAware Approximate
Sat 08:24:00 AM 56.4827 -17.4903 292° West  Level FlightAware Approximate
Sat 08:25:00 AM 56.5273 -17.6949 292° West  Level FlightAware Approximate
Sat 08:26:00 AM 56.5715 -17.9000 291° West  Level FlightAware Approximate
Sat 08:27:00 AM 56.6155 -18.1056 291° West  Level FlightAware Approximate
Sat 08:28:00 AM 56.6591 -18.3116 291° West  Level FlightAware Approximate
Sat 08:29:00 AM 56.7024 -18.5181 291° West  Level FlightAware Approximate
Sat 08:30:00 AM 56.7453 -18.7251 291° West  Level FlightAware Approximate
Sat 08:31:00 AM 56.7878 -18.9326 291° West  Level FlightAware Approximate
Sat 08:32:00 AM 56.8301 -19.1405 290° West  Level FlightAware Approximate
Sat 08:32:44 AM 57.0000 -20.0000 285° West 479 551 32,000  Level ETMS Enhanced Traffic Management System
Sat 08:33:00 AM 56.8720 -19.3489 290° West  Level FlightAware Approximate
Sat 08:34:00 AM 56.9135 -19.5578 290° West  Level FlightAware Approximate
Sat 08:35:00 AM 56.9547 -19.7671 290° West  Level FlightAware Approximate
Sat 08:36:00 AM 56.9955 -19.9769 290° West  Level FlightAware Approximate
Sat 08:37:00 AM 57.0264 -20.1925 284° West  Level FlightAware Approximate
Sat 08:38:00 AM 57.1952 -21.4264 284° West 479 551 32,000  Level FlightAware Transoceanic
Sat 08:39:00 AM 57.2261 -21.6656 283° West 479 551 32,000  Level FlightAware Transoceanic
Sat 08:40:00 AM 57.2566 -21.9051 283° West 479 551 32,000  Level FlightAware Transoceanic
Sat 08:41:00 AM 57.2867 -22.1451 283° West 479 551 32,000  Level FlightAware Transoceanic
Sat 08:42:00 AM 57.3162 -22.3854 283° West 479 551 32,000  Level FlightAware Transoceanic
Sat 08:43:00 AM 57.3454 -22.6262 283° West 479 551 32,000  Level FlightAware Transoceanic
Sat 08:44:00 AM 57.3740 -22.8673 282° West 479 551 32,000  Level FlightAware Transoceanic
Sat 08:45:00 AM 57.4022 -23.1088 282° West 479 551 32,000  Level FlightAware Transoceanic
Sat 08:46:00 AM 57.4300 -23.3506 282° West 479 551 32,000  Level FlightAware Transoceanic
Sat 08:47:00 AM 57.4572 -23.5928 282° West 479 551 32,000  Level FlightAware Transoceanic
Sat 08:48:00 AM 57.4840 -23.8354 282° West 479 551 32,000  Level FlightAware Transoceanic
Sat 08:49:00 AM 57.5104 -24.0784 281° West 479 551 32,000  Level FlightAware Transoceanic
Sat 08:50:00 AM 57.5363 -24.3216 281° West 479 551 32,000  Level FlightAware Transoceanic
Sat 08:51:00 AM 57.5617 -24.5653 281° West 479 551 32,000  Level FlightAware Transoceanic
Sat 08:52:00 AM 57.5866 -24.8092 281° West 479 551 32,000  Level FlightAware Transoceanic
Sat 08:53:00 AM 57.6111 -25.0535 280° West 479 551 32,000  Level FlightAware Transoceanic
Sat 08:54:00 AM 57.6351 -25.2981 280° West 479 551 32,000  Level FlightAware Transoceanic
Sat 08:55:00 AM 57.6586 -25.5431 280° West 479 551 32,000  Level FlightAware Transoceanic
Sat 08:56:00 AM 57.6816 -25.7883 280° West 479 551 32,000  Level FlightAware Transoceanic
Sat 08:57:00 AM 57.7042 -26.0339 280° West 479 551 32,000  Level FlightAware Transoceanic
Sat 08:58:00 AM 57.7263 -26.2798 279° West 479 551 32,000  Level FlightAware Transoceanic
Sat 08:59:00 AM 57.7479 -26.5259 279° West 479 551 32,000  Level FlightAware Transoceanic
Sat 09:00:00 AM 57.7691 -26.7724 279° West 479 551 32,000  Level FlightAware Transoceanic
Sat 09:01:00 AM 57.7897 -27.0191 279° West 479 551 32,000  Level FlightAware Transoceanic
Sat 09:02:00 AM 57.8099 -27.2661 279° West 479 551 32,000  Level FlightAware Transoceanic
Sat 09:03:00 AM 57.8296 -27.5134 278° West 479 551 32,000  Level FlightAware Transoceanic
Sat 09:04:00 AM 57.8488 -27.7610 278° West 479 551 32,000  Level FlightAware Transoceanic
Sat 09:05:00 AM 57.8676 -28.0088 278° West 479 551 32,000  Level FlightAware Transoceanic
Sat 09:06:00 AM 57.8858 -28.2569 278° West 479 551 32,000  Level FlightAware Transoceanic
Sat 09:07:00 AM 57.9036 -28.5052 278° West 479 551 32,000  Level FlightAware Transoceanic
Sat 09:08:00 AM 57.9209 -28.7538 277° West 479 551 32,000  Level FlightAware Transoceanic
Sat 09:09:00 AM 57.9377 -29.0026 277° West 479 551 32,000  Level FlightAware Transoceanic
Sat 09:10:00 AM 57.9540 -29.2516 277° West 479 551 32,000  Level FlightAware Transoceanic
Sat 09:11:00 AM 57.9698 -29.5009 277° West 479 551 32,000  Level FlightAware Transoceanic
Sat 09:12:00 AM 57.9851 -29.7503 277° West 479 551 32,000 Level FlightAware Transoceanic
Sat 09:13:00 AM 57.9987 -29.9779 277° West  Level FlightAware Approximate
Sat 09:14:00 AM 58.0118 -30.2057 276° West  Level FlightAware Approximate
Sat 09:15:00 AM 58.0071 -30.1843 274° West  Level FlightAware Approximate
Sat 09:16:00 AM 58.0156 -30.4129 274° West  Level FlightAware Approximate
Sat 09:17:00 AM 58.0236 -30.6416 274° West  Level FlightAware Approximate
Sat 09:18:00 AM 58.0312 -30.8705 274° West  Level FlightAware Approximate
Sat 09:19:00 AM 58.0384 -31.0994 274° West  Level FlightAware Approximate
Sat 09:20:00 AM 58.0453 -31.3284 273° West  Level FlightAware Approximate
Sat 09:21:00 AM 58.0517 -31.5576 273° West  Level FlightAware Approximate
Sat 09:22:00 AM 58.0576 -31.7867 273° West  Level FlightAware Approximate
Sat 09:23:00 AM 58.0632 -32.0160 273° West  Level FlightAware Approximate
Sat 09:24:00 AM 58.0684 -32.2453 273° West  Level FlightAware Approximate
Sat 09:25:00 AM 58.0731 -32.4747 272° West  Level FlightAware Approximate
Sat 09:26:00 AM 58.0774 -32.7042 272° West  Level FlightAware Approximate
Sat 09:27:00 AM 58.0814 -32.9337 272° West  Level FlightAware Approximate
Sat 09:28:00 AM 58.0849 -33.1632 272° West  Level FlightAware Approximate
Sat 09:29:00 AM 58.0880 -33.3928 272° West  Level FlightAware Approximate
Sat 09:30:00 AM 58.0907 -33.6224 271° West  Level FlightAware Approximate
Sat 09:31:00 AM 58.0929 -33.8521 271° West  Level FlightAware Approximate
Sat 09:32:00 AM 58.0948 -34.0818 271° West  Level FlightAware Approximate
Sat 09:33:00 AM 58.0962 -34.3115 271° West  Level FlightAware Approximate
Sat 09:34:00 AM 58.0973 -34.5412 271° West  Level FlightAware Approximate
Sat 09:35:00 AM 58.0979 -34.7710 270° West  Level FlightAware Approximate
Sat 09:36:00 AM 58.0981 -35.0007 270° West  Level FlightAware Approximate
Sat 09:37:00 AM 58.0979 -35.2304 270° West  Level FlightAware Approximate
Sat 09:38:00 AM 58.0973 -35.4602 270° West  Level FlightAware Approximate
Sat 09:39:00 AM 58.0962 -35.6899 270° West  Level FlightAware Approximate
Sat 09:40:00 AM 58.0948 -35.9196 269° West  Level FlightAware Approximate
Sat 09:41:00 AM 58.0929 -36.1493 269° West  Level FlightAware Approximate
Sat 09:42:00 AM 58.0906 -36.3790 269° West  Level FlightAware Approximate
Sat 09:43:00 AM 58.0880 -36.6086 269° West  Level FlightAware Approximate
Sat 09:44:00 AM 58.0849 -36.8382 269° West  Level FlightAware Approximate
Sat 09:45:00 AM 58.0813 -37.0677 268° West  Level FlightAware Approximate
Sat 09:46:00 AM 58.0774 -37.2972 268° West  Level FlightAware Approximate
Sat 09:47:00 AM 58.0731 -37.5267 268° West  Level FlightAware Approximate
Sat 09:48:00 AM 58.0683 -37.7561 268° West  Level FlightAware Approximate
Sat 09:49:00 AM 58.0632 -37.9854 268° West  Level FlightAware Approximate
Sat 09:50:00 AM 58.0576 -38.2147 267° West  Level FlightAware Approximate
Sat 09:51:00 AM 58.0516 -38.4439 267° West  Level FlightAware Approximate
Sat 09:52:00 AM 58.0452 -38.6730 267° West  Level FlightAware Approximate
Sat 09:53:00 AM 58.0384 -38.9020 267° West  Level FlightAware Approximate
Sat 09:54:00 AM 58.0312 -39.1309 267° West  Level FlightAware Approximate
Sat 09:55:00 AM 58.0235 -39.3598 266° West  Level FlightAware Approximate
Sat 09:56:00 AM 58.0155 -39.5885 266° West  Level FlightAware Approximate
Sat 09:57:00 AM 58.0071 -39.8171 266° West  Level FlightAware Approximate
Sat 09:58:00 AM 58.0018 -40.0457 274° West  Level FlightAware Approximate
Sat 09:59:00 AM 58.0105 -40.2742 274° West  Level FlightAware Approximate
Sat 10:00:00 AM 58.0188 -40.5029 274° West  Level FlightAware Approximate
Sat 10:01:00 AM 58.0267 -40.7317 274° West  Level FlightAware Approximate
Sat 10:02:00 AM 58.0341 -40.9605 274° West  Level FlightAware Approximate
Sat 10:03:00 AM 58.0412 -41.1895 273° West  Level FlightAware Approximate
Sat 10:04:00 AM 58.0478 -41.4186 273° West  Level FlightAware Approximate
Sat 10:05:00 AM 58.0541 -41.6477 273° West  Level FlightAware Approximate
Sat 10:06:00 AM 58.0599 -41.8769 273° West  Level FlightAware Approximate
Sat 10:07:00 AM 58.0653 -42.1062 273° West  Level FlightAware Approximate
Sat 10:08:00 AM 58.0703 -42.3356 272° West  Level FlightAware Approximate
Sat 10:09:00 AM 58.0749 -42.5650 272° West  Level FlightAware Approximate
Sat 10:10:00 AM 58.0790 -42.7945 272° West  Level FlightAware Approximate
Sat 10:11:00 AM 58.0828 -43.0240 272° West  Level FlightAware Approximate
Sat 10:12:00 AM 58.0862 -43.2536 272° West  Level FlightAware Approximate
Sat 10:13:00 AM 58.0891 -43.4832 271° West  Level FlightAware Approximate
Sat 10:14:00 AM 58.0916 -43.7128 271° West  Level FlightAware Approximate
Sat 10:15:00 AM 58.0937 -43.9425 271° West  Level FlightAware Approximate
Sat 10:16:00 AM 58.0954 -44.1722 271° West  Level FlightAware Approximate
Sat 10:17:00 AM 58.0967 -44.4019 271° West  Level FlightAware Approximate
Sat 10:18:00 AM 58.0976 -44.6316 271° West  Level FlightAware Approximate
Sat 10:19:00 AM 58.0980 -44.8614 270° West  Level FlightAware Approximate
Sat 10:20:00 AM 58.0981 -45.0911 270° West  Level FlightAware Approximate
Sat 10:21:00 AM 58.0977 -45.3208 270° West  Level FlightAware Approximate
Sat 10:22:00 AM 58.0969 -45.5506 270° West  Level FlightAware Approximate
Sat 10:23:00 AM 58.0957 -45.7803 270° West  Level FlightAware Approximate
Sat 10:24:00 AM 58.0941 -46.0100 269° West  Level FlightAware Approximate
Sat 10:25:00 AM 58.0921 -46.2397 269° West  Level FlightAware Approximate
Sat 10:26:00 AM 58.0896 -46.4693 269° West  Level FlightAware Approximate
Sat 10:27:00 AM 58.0868 -46.6989 269° West  Level FlightAware Approximate
Sat 10:28:00 AM 58.0835 -46.9285 269° West  Level FlightAware Approximate
Sat 10:29:00 AM 58.0798 -47.1581 268° West  Level FlightAware Approximate
Sat 10:30:00 AM 58.0758 -47.3875 268° West  Level FlightAware Approximate
Sat 10:31:00 AM 58.0713 -47.6170 268° West  Level FlightAware Approximate
Sat 10:32:00 AM 58.0663 -47.8463 268° West  Level FlightAware Approximate
Sat 10:33:00 AM 58.0610 -48.0756 268° West  Level FlightAware Approximate
Sat 10:34:00 AM 58.0553 -48.3049 267° West  Level FlightAware Approximate
Sat 10:35:00 AM 58.0491 -48.5340 267° West  Level FlightAware Approximate
Sat 10:36:00 AM 58.0426 -48.7631 267° West  Level FlightAware Approximate
Sat 10:37:00 AM 58.0356 -48.9921 267° West  Level FlightAware Approximate
Sat 10:38:00 AM 58.0282 -49.2210 267° West  Level FlightAware Approximate
Sat 10:39:00 AM 58.0204 -49.4498 266° West  Level FlightAware Approximate
Sat 10:40:00 AM 58.0122 -49.6785 266° West  Level FlightAware Approximate
Sat 10:41:00 AM 58.0036 -49.9070 266° West  Level FlightAware Approximate
Sat 10:42:00 AM 57.9742 -50.1269 249° West  Level FlightAware Approximate
Sat 10:43:00 AM 57.9304 -50.3402 249° West  Level FlightAware Approximate
Sat 10:44:00 AM 57.8862 -50.5531 249° West  Level FlightAware Approximate
Sat 10:45:00 AM 57.8416 -50.7654 249° West  Level FlightAware Approximate
Sat 10:46:00 AM 57.7968 -50.9773 248° West  Level FlightAware Approximate
Sat 10:47:00 AM 57.7515 -51.1886 248° West  Level FlightAware Approximate
Sat 10:48:00 AM 57.7063 -51.3996 249° West  Level FlightAware Approximate
Sat 10:49:00 AM 57.6621 -51.6111 249° West  Level FlightAware Approximate
Sat 10:50:00 AM 57.6175 -51.8220 249° West  Level FlightAware Approximate
Sat 10:51:00 AM 57.5725 -52.0325 248° West  Level FlightAware Approximate
Sat 10:52:00 AM 57.5272 -52.2424 248° West  Level FlightAware Approximate
Sat 10:53:00 AM 57.4815 -52.4518 248° West  Level FlightAware Approximate
Sat 10:54:00 AM 57.4355 -52.6607 248° West  Level FlightAware Approximate
Sat 10:55:00 AM 57.3891 -52.8690 248° West  Level FlightAware Approximate
Sat 10:56:00 AM 57.3424 -53.0769 247° West  Level FlightAware Approximate
Sat 10:57:00 AM 57.2954 -53.2842 247° West  Level FlightAware Approximate
Sat 10:58:00 AM 57.2480 -53.4909 247° West  Level FlightAware Approximate
Sat 10:59:00 AM 57.2003 -53.6972 247° West  Level FlightAware Approximate
Sat 11:00:00 AM 57.1523 -53.9029 247° West  Level FlightAware Approximate
Sat 11:01:00 AM 57.1041 -54.1082 247° West  Level FlightAware Approximate
Sat 11:01:54 AM 56.9333 -55.3833 252° West 250 288 33,000  Level Gander Center
Sat 11:02:00 AM 57.0559 -54.3132 247° West  Level FlightAware Approximate
Sat 11:02:54 AM 56.9000 -55.6000 254° West 490 564 33,000  Level Gander Center
Sat 11:03:00 AM 57.0073 -54.5177 246° West  Level FlightAware Approximate
Sat 11:03:54 AM 56.8333 -55.8500 244° Southwest 500 575 33,000  Level Gander Center
Sat 11:04:00 AM 56.9583 -54.7216 246° West  Level FlightAware Approximate
Sat 11:04:54 AM 56.7833 -56.0667 247° West 480 552 33,000  Level Gander Center
Sat 11:05:00 AM 56.9091 -54.9250 246° West  Level FlightAware Approximate
Sat 11:05:54 AM 56.7167 -56.3167 244° Southwest 480 552 33,000  Level Gander Center
Sat 11:06:00 AM 56.8725 -55.1360 252° West  Level FlightAware Approximate
Sat 11:06:54 AM 56.6833 -56.5333 254° West 500 575 33,000  Level Gander Center
Sat 11:07:00 AM 56.8356 -55.3466 252° West  Level FlightAware Approximate
Sat 11:07:54 AM 56.6167 -56.7833 244° Southwest 500 575 33,000  Level Gander Center
Sat 11:08:54 AM 56.5667 -57.0167 249° West 500 575 33,000  Level Gander Center
Sat 11:09:54 AM 56.5000 -57.2500 243° Southwest 500 575 33,000  Level Gander Center
Sat 11:10:54 AM 56.4667 -57.4667 255° West 490 564 33,000  Level Gander Center
Sat 11:11:54 AM 56.4000 -57.7167 244° Southwest 490 564 33,000  Level Gander Center
Sat 11:12:54 AM 56.3500 -57.9333 247° West 490 564 33,000  Level Gander Center
Sat 11:13:54 AM 56.2833 -58.1500 241° Southwest 500 575 33,000  Level Gander Center
Sat 11:14:54 AM 56.2000 -58.3667 235° Southwest 490 564 33,000  Level Gander Center
Sat 11:15:54 AM 56.1167 -58.5500 231° Southwest 490 564 33,000  Level Gander Center
Sat 11:16:54 AM 56.0500 -58.7667 241° Southwest 490 564 33,000  Level Gander Center
Sat 11:17:54 AM 55.9667 -58.9500 231° Southwest 490 564 33,000  Level Gander Center
Sat 11:18:54 AM 55.8833 -59.1333 231° Southwest 480 552 33,000 50 Level Gander Center
Sat 11:19:54 AM 55.8000 -59.3500 236° Southwest 480 552 33,100 451 Climbing Gander Center
Sat 11:21:07 AM 55.7000 -59.5667 231° Southwest 480 552 34,000 406 Climbing Gander Center
Sat 11:22:07 AM 55.6333 -59.7667 239° Southwest 470 541 34,000  Level Gander Center
Sat 11:23:07 AM 55.5667 -59.9500 237° Southwest 470 541 34,000  Level Gander Center
Sat 11:24:07 AM 55.4833 -60.1333 231° Southwest 470 541 34,000  Level Gander Center
Sat 11:25:07 AM 55.4167 -60.3167 237° Southwest 460 529 34,000  Level Gander Center
Sat 11:25:54 AM 55.3500 -60.4667 232° Southwest 460 529 34,000  Level Gander Center
Sat 11:27:07 AM 55.2667 -60.7000 238° Southwest 460 529 34,000  Level Gander Center
Sat 11:27:54 AM 55.2000 -60.8500 232° Southwest 460 529 34,000  Level Gander Center
Sat 11:28:54 AM 55.1333 -61.0167 235° Southwest 460 529 34,000  Level Gander Center
Sat 11:29:54 AM 55.0667 -61.2000 238° Southwest 450 518 34,000  Level Gander Center
Sat 11:30:54 AM 54.9833 -61.3667 229° Southwest 450 518 34,000  Level Gander Center
Sat 11:31:54 AM 54.9167 -61.5667 240° Southwest 450 518 34,000  Level Gander Center
Sat 11:32:54 AM 54.8500 -61.7167 232° Southwest 450 518 34,000  Level Gander Center
Sat 11:33:54 AM 54.7833 -61.8833 235° Southwest 450 518 34,000  Level Gander Center
Sat 11:34:54 AM 54.7000 -62.0833 234° Southwest 450 518 34,000  Level Gander Center
Sat 11:35:54 AM 54.6333 -62.2667 238° Southwest 440 506 34,000  Level Gander Center
Sat 11:36:54 AM 54.5667 -62.4333 235° Southwest 440 506 34,000  Level Gander Center
Sat 11:37:54 AM 54.5000 -62.6000 235° Southwest 440 506 34,000  Level Gander Center
Sat 11:38:54 AM 54.4000 -62.7833 227° Southwest 440 506 34,000  Level Gander Center
Sat 11:39:54 AM 54.3333 -62.9500 236° Southwest 440 506 34,000  Level Gander Center
Sat 11:40:54 AM 54.2667 -63.1167 236° Southwest 440 506 34,000  Level Gander Center
Sat 11:41:54 AM 54.2000 -63.2833 236° Southwest 440 506 34,000  Level Gander Center
Sat 11:42:54 AM 54.1333 -63.4500 236° Southwest 430 495 34,000  Level Gander Center
Sat 11:43:54 AM 54.0667 -63.6167 236° Southwest 430 495 34,000  Level Gander Center
Sat 11:44:54 AM 53.9833 -63.7500 223° Southwest 430 495 34,000  Level Gander Center
Sat 11:45:54 AM 53.9167 -63.9500 241° Southwest 430 495 34,000  Level Gander Center
Sat 11:46:54 AM 53.8500 -64.0833 230° Southwest 420 483 34,000  Level Gander Center
Sat 11:47:54 AM 53.7833 -64.2500 236° Southwest 420 483 34,000  Level Gander Center
Sat 11:48:54 AM 53.7000 -64.4167 230° Southwest 420 483 34,000  Level Gander Center
Sat 11:49:54 AM 53.6333 -64.5833 236° Southwest 420 483 34,000  Level Gander Center
Sat 11:50:54 AM 53.5667 -64.7500 236° Southwest 430 495 34,000  Level Gander Center
Sat 11:51:54 AM 53.5000 -64.8833 230° Southwest 430 495 34,000  Level Gander Center
Sat 11:52:54 AM 53.4167 -65.0500 230° Southwest 420 483 34,000  Level Gander Center
Sat 11:53:57 AM 53.3500 -65.1833 230° Southwest 430 495 34,000  Level Montreal Center
Sat 11:54:57 AM 53.2833 -65.3167 230° Southwest 430 495 34,000  Level Montreal Center
Sat 11:55:57 AM 53.2000 -65.4833 230° Southwest 430 495 34,000  Level Montreal Center
Sat 11:56:57 AM 53.1333 -65.6667 239° Southwest 440 506 34,000  Level Montreal Center
Sat 11:57:57 AM 53.0500 -65.8000 224° Southwest 430 495 34,000  Level Montreal Center
Sat 11:58:57 AM 52.9667 -65.9833 233° Southwest 440 506 34,000  Level Montreal Center
Sat 11:59:57 AM 52.9000 -66.1500 236° Southwest 440 506 34,000  Level Montreal Center
Sat 12:00:57 PM 52.8167 -66.2667 220° Southwest 440 506 34,000  Level Montreal Center
Sat 12:01:57 PM 52.7500 -66.4667 241° Southwest 440 506 34,000  Level Montreal Center
Sat 12:02:57 PM 52.6833 -66.6167 234° Southwest 440 506 34,000  Level Montreal Center
Sat 12:03:57 PM 52.6000 -66.7667 228° Southwest 440 506 34,000  Level Montreal Center
Sat 12:04:57 PM 52.5167 -66.9333 231° Southwest 440 506 34,000  Level Montreal Center
Sat 12:05:57 PM 52.4333 -67.0833 228° Southwest 450 518 34,000  Level Montreal Center
Sat 12:06:57 PM 52.3500 -67.2333 228° Southwest 450 518 34,000  Level Montreal Center
Sat 12:07:57 PM 52.2833 -67.4167 239° Southwest 450 518 34,000  Level Montreal Center
Sat 12:08:57 PM 52.2000 -67.5667 228° Southwest 450 518 34,000  Level Montreal Center
Sat 12:09:57 PM 52.1167 -67.7333 231° Southwest 440 506 34,000  Level Montreal Center
Sat 12:10:57 PM 52.0500 -67.8833 234° Southwest 450 518 34,000  Level Montreal Center
Sat 12:11:57 PM 51.9500 -68.0333 223° Southwest 450 518 34,000  Level Montreal Center
Sat 12:12:57 PM 51.8833 -68.2167 240° Southwest 450 518 34,000  Level Montreal Center
Sat 12:13:57 PM 51.8000 -68.3667 228° Southwest 450 518 34,000  Level Montreal Center
Sat 12:14:57 PM 51.7167 -68.5167 228° Southwest 450 518 34,000  Level Montreal Center
Sat 12:15:57 PM 51.6500 -68.6667 234° Southwest 450 518 34,000  Level Montreal Center
Sat 12:16:57 PM 51.5500 -68.8167 223° Southwest 450 518 34,000  Level Montreal Center
Sat 12:17:57 PM 51.4833 -68.9833 237° Southwest 450 518 34,000  Level Montreal Center
Sat 12:18:57 PM 51.3833 -69.1333 223° Southwest 450 518 34,000  Level Montreal Center
Sat 12:19:57 PM 51.3167 -69.2833 235° Southwest 450 518 34,000  Level Montreal Center
Sat 12:20:57 PM 51.2333 -69.4333 228° Southwest 450 518 34,000  Level Montreal Center
Sat 12:21:57 PM 51.1500 -69.6000 231° Southwest 450 518 34,000  Level Montreal Center
Sat 12:22:57 PM 51.0667 -69.7500 229° Southwest 440 506 34,000  Level Montreal Center
Sat 12:23:57 PM 50.9833 -69.8833 225° Southwest 440 506 34,000  Level Montreal Center
Sat 12:24:57 PM 50.9000 -70.0333 229° Southwest 440 506 34,000  Level Montreal Center
Sat 12:25:57 PM 50.8167 -70.1833 229° Southwest 440 506 34,000  Level Montreal Center
Sat 12:26:57 PM 50.7500 -70.3167 232° Southwest 440 506 34,000  Level Montreal Center
Sat 12:27:57 PM 50.6500 -70.4667 224° Southwest 440 506 34,000  Level Montreal Center
Sat 12:28:57 PM 50.5667 -70.6167 229° Southwest 440 506 34,000  Level Montreal Center
Sat 12:29:57 PM 50.5000 -70.7833 238° Southwest 440 506 34,000  Level Montreal Center
Sat 12:30:57 PM 50.4167 -70.9167 226° Southwest 440 506 34,000  Level Montreal Center
Sat 12:37:02 PM 49.9230 -71.7960 226° Southwest 447 514 34,000  Level FlightAware ADS-B
Sat 12:37:52 PM 49.8640 -71.8950 227° Southwest 447 514 34,000  Level FlightAware ADS-B
Sat 12:38:42 PM 49.7900 -72.0190 227° Southwest 449 517 34,000  Level FlightAware ADS-B
Sat 12:39:22 PM 49.7290 -72.1200 227° Southwest 448 516 34,000  Level FlightAware ADS-B
Sat 12:40:07 PM 49.6670 -72.2230 227° Southwest 449 517 34,000  Level FlightAware ADS-B
Sat 12:40:47 PM 49.6110 -72.3160 227° Southwest 449 517 34,000  Level FlightAware ADS-B
Sat 12:41:32 PM 49.5470 -72.4210 227° Southwest 448 516 34,000  Level FlightAware ADS-B
Sat 12:42:12 PM 49.4900 -72.5130 226° Southwest 448 516 34,000  Level FlightAware ADS-B
Sat 12:43:52 PM 49.3510 -72.7380 227° Southwest 448 516 34,000  Level FlightAware ADS-B
Sat 12:44:27 PM 49.2960 -72.8260 226° Southwest 447 514 34,000  Level FlightAware ADS-B
Sat 12:45:12 PM 49.2370 -72.9210 226° Southwest 447 514 34,000  Level FlightAware ADS-B
Sat 12:45:52 PM 49.1840 -72.9900 220° Southwest 446 513 34,000  Level FlightAware ADS-B
Sat 12:46:37 PM 49.1180 -73.0590 214° Southwest 446 513 34,000  Level FlightAware ADS-B
Sat 12:47:17 PM 49.0590 -73.1190 214° Southwest 446 513 34,000  Level FlightAware ADS-B
Sat 12:47:57 PM 49.0010 -73.1790 214° Southwest 446 513 34,000  Level FlightAware ADS-B
Sat 12:48:37 PM 48.9430 -73.2390 214° Southwest 446 513 34,000  Level FlightAware ADS-B
Sat 12:49:27 PM 48.8700 -73.3130 214° Southwest 446 513 34,000  Level FlightAware ADS-B
Sat 12:50:07 PM 48.8120 -73.3730 214° Southwest 446 513 34,000  Level FlightAware ADS-B
Sat 12:50:47 PM 48.7540 -73.4320 214° Southwest 446 513 34,000  Level FlightAware ADS-B
Sat 12:50:57 PM 48.6000 -73.3840 168° South 447 514 34,000  Level FlightAware ADS-B
Sat 12:51:42 PM 48.5080 -73.4350 200° South 447 514 34,000  Level FlightAware ADS-B
Sat 12:52:27 PM 48.4200 -73.4850 201° Southwest 445 512 34,000  Level FlightAware ADS-B
Sat 12:53:12 PM 48.3370 -73.5320 201° Southwest 443 510 34,000  Level FlightAware ADS-B
Sat 12:53:52 PM 48.2640 -73.5730 201° Southwest 442 509 34,000  Level FlightAware ADS-B
Sat 12:54:32 PM 48.1820 -73.6190 201° Southwest 441 507 34,000  Level FlightAware ADS-B
Sat 12:55:17 PM 48.0960 -73.6660 200° South 439 505 34,000  Level FlightAware ADS-B
Sat 12:55:57 PM 48.0210 -73.7090 201° Southwest 438 504 34,000  Level FlightAware ADS-B
Sat 12:56:37 PM 47.9450 -73.7500 200° South 437 503 34,000  Level FlightAware ADS-B
Sat 12:57:22 PM 47.8610 -73.7970 201° Southwest 435 501 34,000  Level FlightAware ADS-B
Sat 12:58:02 PM 47.7860 -73.8390 201° Southwest 435 501 34,000  Level FlightAware ADS-B
Sat 12:58:47 PM 47.7010 -73.8860 200° South 435 501 34,000  Level FlightAware ADS-B
Sat 12:59:27 PM 47.6260 -73.9270 200° South 434 499 34,000  Level FlightAware ADS-B
Sat 01:00:12 PM 47.5420 -73.9720 200° South 432 497 34,000  Level FlightAware ADS-B
Sat 01:00:52 PM 47.4670 -74.0130 200° South 430 495 34,000  Level FlightAware ADS-B
Sat 01:01:32 PM 47.3930 -74.0540 201° Southwest 428 493 34,000  Level FlightAware ADS-B
Sat 01:02:17 PM 47.3110 -74.0990 200° South 426 490 34,000  Level FlightAware ADS-B
Sat 01:02:57 PM 47.2360 -74.1390 200° South 426 490 34,000  Level FlightAware ADS-B
Sat 01:03:37 PM 47.1640 -74.1780 200° South 426 490 34,000  Level FlightAware ADS-B
Sat 01:04:17 PM 47.0950 -74.2150 200° South 424 488 34,000  Level FlightAware ADS-B
Sat 01:05:02 PM 47.0070 -74.2620 200° South 425 489 34,000  Level FlightAware ADS-B
Sat 01:05:47 PM 46.9240 -74.3070 200° South 426 490 34,000  Level FlightAware ADS-B
Sat 01:06:27 PM 46.8490 -74.3470 200° South 426 490 34,000  Level FlightAware ADS-B
Sat 01:07:07 PM 46.7760 -74.3860 200° South 427 491 34,000  Level FlightAware ADS-B
Sat 01:07:52 PM 46.6920 -74.4310 200° South 427 491 34,000  Level FlightAware ADS-B
Sat 01:08:32 PM 46.6190 -74.4700 200° South 427 491 34,000  Level FlightAware ADS-B
Sat 01:09:17 PM 46.5350 -74.5140 200° South 426 490 34,000  Level FlightAware ADS-B
Sat 01:09:57 PM 46.4620 -74.5530 200° South 427 491 34,000  Level FlightAware ADS-B
Sat 01:10:42 PM 46.3780 -74.5970 200° South 427 491 34,000  Level FlightAware ADS-B
Sat 01:11:22 PM 46.3040 -74.6360 200° South 428 493 34,000  Level FlightAware ADS-B
Sat 01:12:02 PM 46.2300 -74.6750 200° South 428 493 34,000  Level FlightAware ADS-B
Sat 01:12:47 PM 46.1460 -74.7190 200° South 430 495 34,000  Level FlightAware ADS-B
Sat 01:13:27 PM 46.0720 -74.7570 200° South 430 495 34,000  Level FlightAware ADS-B
Sat 01:14:07 PM 45.9970 -74.7960 200° South 430 495 34,000  Level FlightAware ADS-B
Sat 01:14:47 PM 45.9240 -74.8340 200° South 427 491 34,000  Level FlightAware ADS-B
Sat 01:15:32 PM 45.8400 -74.8770 200° South 424 488 34,000  Level FlightAware ADS-B
Sat 01:16:12 PM 45.7690 -74.9140 200° South 422 486 34,000  Level FlightAware ADS-B
Sat 01:16:57 PM 45.6920 -74.9540 200° South 421 484 34,000  Level FlightAware ADS-B
Sat 01:17:37 PM 45.6100 -74.9960 200° South 416 479 34,000  Level FlightAware ADS-B
Sat 01:18:27 PM 45.5210 -75.0410 200° South 414 476 34,000  Level FlightAware ADS-B
Sat 01:19:07 PM 45.4480 -75.0790 200° South 412 474 34,000  Level FlightAware ADS-B
Sat 01:19:47 PM 45.3790 -75.1140 200° South 410 472 34,000  Level FlightAware ADS-B
Sat 01:20:32 PM 45.2990 -75.1540 199° South 410 472 34,000  Level FlightAware ADS-B
Sat 01:21:12 PM 45.2270 -75.1910 200° South 408 470 34,000  Level FlightAware ADS-B
Sat 01:21:57 PM 45.1470 -75.2310 199° South 408 470 34,000  Level FlightAware ADS-B
Sat 01:22:37 PM 45.0750 -75.2680 200° South 408 470 34,000  Level FlightAware ADS-B
Sat 01:23:17 PM 45.0040 -75.3030 199° South 408 470 34,000  Level FlightAware ADS-B
Sat 01:24:02 PM 44.9250 -75.3430 200° South 410 472 34,000  Level FlightAware ADS-B
Sat 01:24:42 PM 44.8530 -75.3790 200° South 411 473 34,000  Level FlightAware ADS-B
Sat 01:25:22 PM 44.7820 -75.4140 199° South 410 472 34,000  Level FlightAware ADS-B
Sat 01:26:07 PM 44.7010 -75.4550 200° South 409 471 34,000  Level FlightAware ADS-B
Sat 01:26:47 PM 44.6330 -75.4880 199° South 409 471 34,000  Level FlightAware ADS-B
Sat 01:27:32 PM 44.5540 -75.5280 200° South 408 470 34,000  Level FlightAware ADS-B
Sat 01:28:12 PM 44.4800 -75.5640 199° South 407 468 34,000  Level FlightAware ADS-B
Sat 01:28:52 PM 44.4120 -75.5980 200° South 396 456 34,000  Level FlightAware ADS-B
Sat 01:29:37 PM 44.3310 -75.6370 199° South 394 453 34,000  Level FlightAware ADS-B
Sat 01:30:17 PM 44.2640 -75.6710 200° South 391 450 34,000  Level FlightAware ADS-B
Sat 01:31:02 PM 44.1850 -75.7090 199° South 395 455 34,000  Level FlightAware ADS-B
Sat 01:31:42 PM 44.1160 -75.7430 199° South 391 450 34,000  Level FlightAware ADS-B
Sat 01:32:22 PM 44.0480 -75.7760 199° South 388 447 34,000  Level FlightAware ADS-B
Sat 01:33:07 PM 43.9720 -75.8130 199° South 379 436 34,000  Level FlightAware ADS-B
Sat 01:33:47 PM 43.9050 -75.8450 199° South 378 435 34,000  Level FlightAware ADS-B
Sat 01:34:27 PM 43.8360 -75.8780 199° South 378 435 34,000  Level FlightAware ADS-B
Sat 01:35:12 PM 43.7600 -75.9150 199° South 377 434 34,000  Level FlightAware ADS-B
Sat 01:36:07 PM 43.6740 -75.9570 199° South 382 440 34,000  Level FlightAware ADS-B
Sat 01:36:47 PM 43.6090 -75.9870 198° South 381 438 34,000  Level FlightAware ADS-B
Sat 01:37:32 PM 43.5330 -76.0240 199° South 379 436 34,000  Level FlightAware ADS-B
Sat 01:38:12 PM 43.4670 -76.0550 199° South 378 435 34,000  Level FlightAware ADS-B
Sat 01:38:57 PM 43.3920 -76.0910 199° South 377 434 34,000  Level FlightAware ADS-B
Sat 01:39:37 PM 43.3260 -76.1220 199° South 376 433 34,000  Level FlightAware ADS-B
Sat 01:40:17 PM 43.2610 -76.1530 199° South 375 432 34,000  Level FlightAware ADS-B
Sat 01:41:02 PM 43.1910 -76.1860 199° South 375 432 34,000  Level FlightAware ADS-B
Sat 01:41:42 PM 43.1260 -76.2270 205° Southwest 365 420 34,000  Level FlightAware ADS-B
Sat 01:42:22 PM 43.0680 -76.2760 212° Southwest 365 420 34,000  Level FlightAware ADS-B
Sat 01:43:07 PM 43.0030 -76.3310 212° Southwest 365 420 34,000  Level FlightAware ADS-B
Sat 01:43:47 PM 42.9460 -76.3790 212° Southwest 365 420 34,000  Level FlightAware ADS-B
Sat 01:44:27 PM 42.8890 -76.4260 211° Southwest 363 418 34,000  Level FlightAware ADS-B
Sat 01:45:12 PM 42.8230 -76.4800 211° Southwest 361 415 34,000 -212 Level FlightAware ADS-B
Sat 01:45:52 PM 42.7670 -76.5260 211° Southwest 358 412 33,700 -1,624 Descending FlightAware ADS-B
Sat 01:46:37 PM 42.7040 -76.5780 211° Southwest 358 412 31,700 -2,471 Descending FlightAware ADS-B
Sat 01:47:17 PM 42.6470 -76.6250 211° Southwest 348 400 30,200 -1,275 Descending FlightAware ADS-B
Sat 01:47:57 PM 42.5930 -76.6690 211° Southwest 343 395 30,000 -141 Descending FlightAware ADS-B
Sat 01:48:42 PM 42.5320 -76.7190 211° Southwest 350 403 30,000  Level FlightAware ADS-B
Sat 01:49:22 PM 42.4760 -76.7640 211° Southwest 352 405 30,000  Level FlightAware ADS-B
Sat 01:50:07 PM 42.4120 -76.8160 211° Southwest 352 405 30,000  Level FlightAware ADS-B
Sat 01:50:47 PM 42.3550 -76.8620 211° Southwest 352 405 30,000  Level FlightAware ADS-B
Sat 01:51:27 PM 42.2980 -76.9070 210° Southwest 354 407 30,000  Level FlightAware ADS-B
Sat 01:52:12 PM 42.2350 -76.9580 211° Southwest 356 410 30,000 -141 Level FlightAware ADS-B
Sat 01:52:52 PM 42.1780 -77.0030 210° Southwest 362 417 29,800 -847 Descending FlightAware ADS-B
Sat 01:53:37 PM 42.1130 -77.0560 211° Southwest 368 423 28,800 -1,200 Descending FlightAware ADS-B
Sat 01:54:17 PM 42.0590 -77.0980 210° Southwest 367 422 28,100 -565 Descending FlightAware ADS-B
Sat 01:55:02 PM 41.9910 -77.1520 211° Southwest 366 421 28,000 -71 Descending FlightAware ADS-B
Sat 01:55:42 PM 41.9320 -77.1990 211° Southwest 368 423 28,000  Level FlightAware ADS-B
Sat 01:56:22 PM 41.8710 -77.2470 210° Southwest 366 421 28,000  Level FlightAware ADS-B
Sat 01:57:07 PM 41.8050 -77.2990 210° Southwest 367 422 28,000  Level FlightAware ADS-B
Sat 01:57:47 PM 41.7480 -77.3440 211° Southwest 368 423 28,000  Level FlightAware ADS-B
Sat 01:58:32 PM 41.6800 -77.3960 210° Southwest 369 425 28,000  Level FlightAware ADS-B
Sat 01:59:12 PM 41.6210 -77.4420 210° Southwest 369 425 28,000  Level FlightAware ADS-B
Sat 01:59:52 PM 41.5630 -77.4880 211° Southwest 370 426 28,000  Level FlightAware ADS-B
Sat 02:00:37 PM 41.5020 -77.5350 210° Southwest 371 427 28,000  Level FlightAware ADS-B
Sat 02:01:17 PM 41.4370 -77.5850 210° Southwest 372 428 28,000  Level FlightAware ADS-B
Sat 02:02:02 PM 41.3740 -77.6340 210° Southwest 372 428 28,000  Level FlightAware ADS-B
Sat 02:02:42 PM 41.3110 -77.6820 210° Southwest 373 429 28,000 -375 Level FlightAware ADS-B
Sat 02:03:22 PM 41.2510 -77.7270 209° Southwest 375 432 27,500 -1,129 Descending FlightAware ADS-B
Sat 02:04:07 PM 41.1840 -77.7790 210° Southwest 379 436 26,400 -1,412 Descending FlightAware ADS-B
Sat 02:04:47 PM 41.1250 -77.8240 210° Southwest 381 438 25,500 -1,553 Descending FlightAware ADS-B
Sat 02:05:32 PM 41.0520 -77.8790 210° Southwest 387 445 24,200 -1,765 Descending FlightAware ADS-B
Sat 02:06:12 PM 40.9900 -77.9270 210° Southwest 393 452 23,000 -2,229 Descending FlightAware ADS-B
Sat 02:06:42 PM 40.9350 -77.9480 196° South 440 506 21,600 -1,292 Descending FlightAware ADS-B
Sat 02:07:17 PM 40.8670 -77.9480 180° South 440 506 21,600  Level FlightAware ADS-B
Sat 02:07:57 PM 40.7980 -77.9480 180° South 440 506 21,600  Level FlightAware ADS-B
Sat 02:08:47 PM 40.7110 -77.9480 180° South 440 506 21,600 -1,040 Level FlightAware ADS-B
Sat 02:10:27 PM 40.5640 -77.5830 118° Southeast 449 517 19,000 -1,156 Descending FlightAware ADS-B
Sat 02:11:02 PM 40.4990 -77.5170 142° Southeast 452 520 19,000 -619 Level FlightAware ADS-B
Sat 02:13:02 PM 40.3120 -77.3230 142° Southeast 434 499 17,400 -938 Descending FlightAware ADS-B
Sat 02:13:42 PM 40.2470 -77.2570 142° Southeast 431 496 16,500 -1,129 Descending FlightAware ADS-B
Sat 02:14:27 PM 40.1720 -77.1990 149° Southeast 408 470 15,800 -1,059 Descending FlightAware ADS-B
Sat 02:15:07 PM 40.1040 -77.1820 169° South 385 443 15,000 -1,350 Descending FlightAware ADS-B
Sat 02:15:47 PM 40.0220 -77.1870 183° South 386 444 14,000 -1,341 Descending FlightAware ADS-B
Sat 02:16:32 PM 39.9410 -77.1920 183° South 383 441 13,100 -750 Descending FlightAware ADS-B
Sat 02:17:07 PM 39.8830 -77.1950 182° South 383 441 13,000 -343 Descending FlightAware ADS-B
Sat 02:17:42 PM 39.8220 -77.2040 186° South 371 427 12,700 -600 Descending FlightAware ADS-B
Sat 02:17:57 PM 39.8020 -77.2190 210° Southwest 359 413 12,500 -1,418 Descending FlightAware ADS-B
Sat 02:18:37 PM 39.7430 -77.2590 208° Southwest 357 411 11,400 -1,482 Descending FlightAware ADS-B
Sat 02:19:22 PM 39.6750 -77.2960 203° Southwest 335 386 10,400 -790 Descending FlightAware ADS-B
Sat 02:25:27 PM 39.2240 -77.4430 194° South 244 281 6,000 -796 Descending FlightAware ADS-B
Sat 02:26:47 PM 39.1370 -77.4460 182° South 204 235 4,500 -1,137 Descending FlightAware ADS-B
Sat 02:27:02 PM 39.1240 -77.4470 183° South 197 227 4,200 -1,200 Descending FlightAware ADS-B
Sat 02:27:22 PM 39.1080 -77.4470 180° South 185 213 3,800 -533 Descending FlightAware ADS-B
Sat 02:27:47 PM 39.0870 -77.4480 182° South 185 213 3,800  Level FlightAware ADS-B

Login

Don't have an account? Register now (free) for customized features, flight alerts, and more!